Time;durP1;ratioP1;P1;durP2;ratioP2;P2;SDS_P1;SDS_P2;PMS_P1;PMS_P2;Temp;Humidity;BMP_temperature;BMP_pressure;BME280_temperature;BME280_humidity;BME280_pressure;Samples;Min_cycle;Max_cycle;Signal;HPM_P1;HPM_P2
2021/01/16 00:00:28;;;;;;;27.43;17.07;;;2.60;84.60;;;;;;4414824;32;20199;-64
2021/01/16 00:02:54;;;;;;;23.73;15.53;;;2.60;85.30;;;;;;4408651;32;20266;-65
2021/01/16 00:05:23;;;;;;;25.17;14.80;;;2.60;85.00;;;;;;4411529;32;20290;-64
2021/01/16 00:08:21;;;;;;;27.90;17.53;;;2.60;85.10;;;;;;4409248;32;20512;-65
2021/01/16 00:10:50;;;;;;;27.63;16.17;;;2.60;84.80;;;;;;4416134;32;20229;-64
2021/01/16 00:13:19;;;;;;;28.00;16.60;;;2.60;85.30;;;;;;4413113;32;20657;-65
2021/01/16 00:15:49;;;;;;;26.17;16.50;;;2.60;85.10;;;;;;4404605;32;20221;-65
2021/01/16 00:18:20;;;;;;;25.23;15.97;;;2.50;84.90;;;;;;4411689;32;20144;-64
2021/01/16 00:20:59;;;;;;;21.43;14.13;;;2.60;84.80;;;;;;4417183;32;20203;-64
2021/01/16 00:23:28;;;;;;;23.47;15.10;;;2.60;84.50;;;;;;4416132;32;20219;-64
2021/01/16 00:25:59;;;;;;;26.83;14.93;;;2.60;84.30;;;;;;4403351;32;20159;-64
2021/01/16 00:28:32;;;;;;;24.13;16.20;;;2.50;84.30;;;;;;4404094;32;20238;-66
2021/01/16 00:31:05;;;;;;;26.63;15.63;;;2.50;84.60;;;;;;4404871;32;20152;-65
2021/01/16 00:33:38;;;;;;;25.87;16.00;;;2.50;84.50;;;;;;4405911;32;20151;-64
2021/01/16 00:36:06;;;;;;;25.17;16.20;;;2.40;85.00;;;;;;4404670;32;20505;-64
2021/01/16 00:38:40;;;;;;;26.63;15.77;;;2.40;85.10;;;;;;4405143;32;20176;-66
2021/01/16 00:41:10;;;;;;;29.17;17.23;;;2.50;85.20;;;;;;4410415;32;20167;-66
2021/01/16 00:43:36;;;;;;;25.40;16.63;;;2.50;85.70;;;;;;4416395;32;20162;-65
2021/01/16 00:46:02;;;;;;;24.70;15.93;;;2.50;86.20;;;;;;4419141;32;20572;-65
2021/01/16 00:48:29;;;;;;;22.30;14.80;;;2.40;86.10;;;;;;4418016;32;20271;-65
2021/01/16 00:50:56;;;;;;;25.03;15.90;;;2.50;86.00;;;;;;4419030;32;20594;-66
2021/01/16 00:53:23;;;;;;;30.63;15.50;;;2.50;86.30;;;;;;4417954;32;20205;-64
2021/01/16 00:55:51;;;;;;;27.57;16.37;;;2.50;85.70;;;;;;4410378;32;20162;-65
2021/01/16 00:58:21;;;;;;;27.13;17.30;;;2.50;85.90;;;;;;4404245;32;20266;-65
2021/01/16 01:00:52;;;;;;;23.70;15.47;;;2.50;85.70;;;;;;4410042;32;20282;-65
2021/01/16 01:03:22;;;;;;;22.20;14.23;;;2.50;85.90;;;;;;4407071;32;20202;-66
2021/01/16 01:05:49;;;;;;;24.23;15.33;;;2.50;85.70;;;;;;4406162;32;20572;-64
2021/01/16 01:08:25;;;;;;;24.90;15.97;;;2.50;85.40;;;;;;4406090;32;20164;-66
2021/01/16 01:10:56;;;;;;;24.13;14.90;;;2.50;85.50;;;;;;4421482;32;20139;-64
2021/01/16 01:13:34;;;;;;;27.10;15.93;;;2.50;85.80;;;;;;4408496;32;20202;-65
2021/01/16 01:16:00;;;;;;;25.03;14.90;;;2.50;85.20;;;;;;4421897;32;20135;-64
2021/01/16 01:18:28;;;;;;;23.87;14.50;;;2.50;85.10;;;;;;4417740;32;20653;-64
2021/01/16 01:20:56;;;;;;;24.90;15.60;;;2.50;85.10;;;;;;4407527;32;20533;-65
2021/01/16 01:23:23;;;;;;;22.13;15.03;;;2.50;85.40;;;;;;4416489;32;20163;-64
2021/01/16 01:25:49;;;;;;;26.27;15.93;;;2.50;85.30;;;;;;4409797;32;20539;-64
2021/01/16 01:28:22;;;;;;;21.50;14.87;;;2.40;85.40;;;;;;4416682;32;20235;-64
2021/01/16 01:30:53;;;;;;;21.67;14.37;;;2.50;85.30;;;;;;4406333;32;20199;-63
2021/01/16 01:33:46;;;;;;;24.30;15.23;;;2.50;85.10;;;;;;4408369;32;20258;-65
2021/01/16 01:36:12;;;;;;;25.70;16.03;;;2.50;85.50;;;;;;4423178;32;20163;-65
2021/01/16 01:38:38;;;;;;;28.90;16.00;;;2.50;85.70;;;;;;4419334;32;20647;-66
2021/01/16 01:41:04;;;;;;;24.27;15.17;;;2.50;85.20;;;;;;4410379;32;20565;-65
2021/01/16 01:43:32;;;;;;;25.50;16.07;;;2.40;85.30;;;;;;4406082;32;20162;-64
2021/01/16 01:45:58;;;;;;;24.00;15.67;;;2.40;85.20;;;;;;4418952;32;20179;-65
2021/01/16 01:48:28;;;;;;;24.97;15.03;;;2.30;85.60;;;;;;4419779;32;20600;-65
2021/01/16 01:50:54;;;;;;;22.80;15.13;;;2.40;86.10;;;;;;4408006;32;20170;-65
2021/01/16 01:53:22;;;;;;;23.87;15.17;;;2.40;86.00;;;;;;4413736;32;20159;-64
2021/01/16 01:55:55;;;;;;;26.07;15.67;;;2.40;86.50;;;;;;4413879;32;20250;-64
2021/01/16 01:58:26;;;;;;;24.10;14.90;;;2.40;86.20;;;;;;4406525;32;20231;-64
2021/01/16 02:00:54;;;;;;;23.87;15.07;;;2.40;85.80;;;;;;4406479;32;20166;-64
2021/01/16 02:03:23;;;;;;;22.80;14.90;;;2.40;85.70;;;;;;4413431;32;20610;-64
2021/01/16 02:05:53;;;;;;;22.90;14.30;;;2.40;86.00;;;;;;4409620;32;20171;-63
2021/01/16 02:08:26;;;;;;;23.87;14.90;;;2.40;86.00;;;;;;4419197;32;20175;-64
2021/01/16 02:10:59;;;;;;;25.13;15.00;;;2.40;86.00;;;;;;4420857;32;20155;-65
2021/01/16 02:13:25;;;;;;;25.17;15.90;;;2.50;85.70;;;;;;4412197;32;20234;-63
2021/01/16 02:16:03;;;;;;;22.87;14.57;;;2.40;86.00;;;;;;4412818;32;20492;-65
2021/01/16 02:18:37;;;;;;;24.60;15.23;;;2.50;86.50;;;;;;4413671;32;20170;-65
2021/01/16 02:21:05;;;;;;;23.50;15.63;;;2.40;86.20;;;;;;4409818;32;20218;-63
2021/01/16 02:23:46;;;;;;;20.83;14.23;;;2.40;86.40;;;;;;4415653;32;20539;-66
2021/01/16 02:26:50;;;;;;;24.03;15.73;;;2.50;86.30;;;;;;4421029;32;20131;-64
2021/01/16 02:29:18;;;;;;;25.37;15.93;;;2.40;86.20;;;;;;4417401;32;20627;-64
2021/01/16 02:31:54;;;;;;;26.13;16.40;;;2.50;86.50;;;;;;4420449;32;20324;-63
2021/01/16 02:34:27;;;;;;;25.50;15.27;;;2.50;86.50;;;;;;4407024;32;20163;-65
2021/01/16 02:37:35;;;;;;;24.93;14.93;;;2.50;86.20;;;;;;4406061;32;20155;-64
2021/01/16 02:40:24;;;;;;;29.13;15.40;;;2.40;86.10;;;;;;4305855;33;20200;-64
2021/01/16 02:43:03;;;;;;;24.97;14.53;;;2.50;85.70;;;;;;4297626;33;20209;-64
2021/01/16 02:45:45;;;;;;;24.10;14.70;;;2.40;85.90;;;;;;4300837;33;20239;-65
2021/01/16 02:48:20;;;;;;;29.07;15.20;;;2.40;86.00;;;;;;4298733;33;20162;-65
2021/01/16 02:50:49;;;;;;;24.90;14.60;;;2.30;86.20;;;;;;4301484;33;20245;-65
2021/01/16 02:53:20;;;;;;;21.30;13.40;;;2.30;86.40;;;;;;4298662;33;20167;-64
2021/01/16 02:55:56;;;;;;;21.63;15.03;;;2.30;86.60;;;;;;4305496;33;20277;-63
2021/01/16 02:58:37;;;;;;;22.03;14.53;;;2.40;86.60;;;;;;4301759;33;20221;-65
2021/01/16 03:01:06;;;;;;;25.23;15.27;;;2.40;86.40;;;;;;4299319;33;20240;-64
2021/01/16 03:03:38;;;;;;;23.30;15.43;;;2.40;86.60;;;;;;4300274;33;20149;-63
2021/01/16 03:06:05;;;;;;;24.53;15.40;;;2.40;86.10;;;;;;4300299;33;20158;-64
2021/01/16 03:08:35;;;;;;;24.47;15.43;;;2.40;86.20;;;;;;4299545;33;20339;-63
2021/01/16 03:11:07;;;;;;;23.27;15.00;;;2.40;86.50;;;;;;4299252;33;20380;-64
2021/01/16 03:13:33;;;;;;;22.13;14.87;;;2.40;86.60;;;;;;4303445;33;20665;-64
2021/01/16 03:16:07;;;;;;;23.27;15.33;;;2.40;86.10;;;;;;4330445;32;20229;-65
2021/01/16 03:18:43;;;;;;;20.73;14.33;;;2.40;86.50;;;;;;4414462;32;20204;-64
2021/01/16 03:21:12;;;;;;;21.13;14.57;;;2.40;86.00;;;;;;4408064;32;20154;-64
2021/01/16 03:23:40;;;;;;;24.87;14.60;;;2.40;86.10;;;;;;4405891;32;20712;-65
2021/01/16 03:26:09;;;;;;;22.53;14.57;;;2.40;86.50;;;;;;4404896;32;20154;-64
2021/01/16 03:28:51;;;;;;;22.57;15.10;;;2.40;86.20;;;;;;4418546;32;20221;-64
2021/01/16 03:31:18;;;;;;;21.60;15.33;;;2.50;86.00;;;;;;4409795;32;20246;-64
2021/01/16 03:33:44;;;;;;;20.47;13.73;;;2.40;86.00;;;;;;4410256;32;20178;-65
2021/01/16 03:36:11;;;;;;;22.73;13.80;;;2.40;85.90;;;;;;4418654;32;20157;-63
2021/01/16 03:38:38;;;;;;;22.30;14.93;;;2.40;86.00;;;;;;4405751;32;20164;-65
2021/01/16 03:41:10;;;;;;;22.60;15.00;;;2.40;85.80;;;;;;4416960;32;20155;-65
2021/01/16 03:43:36;;;;;;;21.43;14.37;;;2.40;85.80;;;;;;4418078;32;20236;-63
2021/01/16 03:46:07;;;;;;;21.60;14.23;;;2.40;85.80;;;;;;4419241;32;20155;-65
2021/01/16 03:48:37;;;;;;;20.60;13.57;;;2.30;85.70;;;;;;4405263;32;20212;-64
2021/01/16 03:51:04;;;;;;;21.10;13.93;;;2.30;86.20;;;;;;4404727;32;20218;-65
2021/01/16 03:53:39;;;;;;;20.20;13.40;;;2.30;85.60;;;;;;4414685;32;20154;-65
2021/01/16 03:56:05;;;;;;;23.53;14.47;;;2.40;85.70;;;;;;4420324;32;20135;-65
2021/01/16 03:58:37;;;;;;;22.20;14.27;;;2.40;86.00;;;;;;4406057;32;20166;-65
2021/01/16 04:01:04;;;;;;;20.40;14.40;;;2.40;86.00;;;;;;4416973;32;20166;-64
2021/01/16 04:03:30;;;;;;;22.00;14.37;;;2.40;85.80;;;;;;4406947;32;20214;-63
2021/01/16 04:06:00;;;;;;;19.77;13.93;;;2.40;85.30;;;;;;4416172;32;20227;-64
2021/01/16 04:08:26;;;;;;;24.50;14.90;;;2.40;85.60;;;;;;4407446;32;20178;-64
2021/01/16 04:13:35;;;;;;;20.77;14.10;;;2.40;85.40;;;;;;4410169;32;20163;-65
2021/01/16 04:16:04;;;;;;;24.80;13.70;;;2.30;85.90;;;;;;4405768;32;20541;-63
2021/01/16 04:18:34;;;;;;;23.50;14.87;;;2.40;85.80;;;;;;4406636;32;20199;-65
2021/01/16 04:21:01;;;;;;;21.57;13.97;;;2.30;86.10;;;;;;4404242;32;20174;-64
2021/01/16 04:23:27;;;;;;;24.43;15.47;;;2.30;86.30;;;;;;4414633;32;20167;-65
2021/01/16 04:26:04;;;;;;;20.07;14.33;;;2.40;86.80;;;;;;4419277;32;20175;-65
2021/01/16 04:28:33;;;;;;;21.17;14.80;;;2.40;86.40;;;;;;4415806;32;20148;-64
2021/01/16 04:30:59;;;;;;;22.80;14.03;;;2.40;86.20;;;;;;4417860;32;20162;-64
2021/01/16 04:33:32;;;;;;;21.83;13.87;;;2.40;86.10;;;;;;4405648;32;20162;-65
2021/01/16 04:35:58;;;;;;;20.83;14.00;;;2.40;85.70;;;;;;4418391;32;20317;-65
2021/01/16 04:38:25;;;;;;;20.73;13.20;;;2.40;86.00;;;;;;4410569;32;20265;-66
2021/01/16 04:40:55;;;;;;;20.23;14.17;;;2.40;86.00;;;;;;4404976;32;20182;-64
2021/01/16 04:43:27;;;;;;;21.87;15.10;;;2.40;86.30;;;;;;4406529;32;20197;-64
2021/01/16 04:46:04;;;;;;;22.40;14.03;;;2.40;85.60;;;;;;4414531;32;20151;-65
2021/01/16 04:48:32;;;;;;;20.87;14.23;;;2.40;85.40;;;;;;4407988;32;20152;-64
2021/01/16 04:51:00;;;;;;;22.57;14.00;;;2.50;85.20;;;;;;4416979;32;20213;-64
2021/01/16 04:53:37;;;;;;;19.33;13.43;;;2.40;86.20;;;;;;4419174;32;20158;-65
2021/01/16 04:56:10;;;;;;;22.20;13.80;;;2.50;85.20;;;;;;4415190;32;20538;-64
2021/01/16 04:58:41;;;;;;;22.53;15.07;;;2.40;85.00;;;;;;4404329;32;20630;-67
2021/01/16 05:01:09;;;;;;;21.10;13.23;;;2.40;85.60;;;;;;4404241;32;20588;-64
2021/01/16 05:03:39;;;;;;;22.87;14.90;;;2.40;85.80;;;;;;4404763;32;20154;-65
2021/01/16 05:06:09;;;;;;;24.27;14.10;;;2.40;86.20;;;;;;4407155;32;20144;-65
2021/01/16 05:08:38;;;;;;;21.87;14.20;;;2.50;86.10;;;;;;4403557;32;20171;-65
2021/01/16 05:11:07;;;;;;;22.93;13.80;;;2.40;85.90;;;;;;4404112;32;20234;-64
2021/01/16 05:13:43;;;;;;;22.80;14.53;;;2.50;85.90;;;;;;4405327;32;20219;-65
2021/01/16 05:16:16;;;;;;;24.67;14.33;;;2.50;85.30;;;;;;4416674;32;20151;-64
2021/01/16 05:18:44;;;;;;;22.73;15.20;;;2.40;85.20;;;;;;4409540;32;20175;-64
2021/01/16 05:21:14;;;;;;;22.57;15.13;;;2.40;85.40;;;;;;4413393;32;20147;-64
2021/01/16 05:23:52;;;;;;;20.97;14.37;;;2.40;85.10;;;;;;4404702;32;20151;-65
2021/01/16 05:26:21;;;;;;;25.30;14.83;;;2.40;85.60;;;;;;4412464;32;20225;-63
2021/01/16 05:28:49;;;;;;;19.57;13.43;;;2.40;84.90;;;;;;4403597;32;20231;-66
2021/01/16 05:31:19;;;;;;;21.03;14.83;;;2.40;84.60;;;;;;4403975;32;20595;-66
2021/01/16 05:33:47;;;;;;;21.30;13.70;;;2.40;85.50;;;;;;4403021;32;20258;-65
2021/01/16 05:36:25;;;;;;;19.93;14.13;;;2.30;85.30;;;;;;4403832;32;20159;-64
2021/01/16 05:39:04;;;;;;;20.87;14.47;;;2.40;85.20;;;;;;4413432;32;20226;-64
2021/01/16 05:41:34;;;;;;;21.97;13.73;;;2.40;85.00;;;;;;4419128;32;20214;-63
2021/01/16 05:44:01;;;;;;;22.47;14.33;;;2.40;84.80;;;;;;4418493;32;20227;-64
2021/01/16 05:46:33;;;;;;;21.27;13.70;;;2.40;84.70;;;;;;4405501;32;20230;-65
2021/01/16 05:48:59;;;;;;;23.13;15.60;;;2.40;84.80;;;;;;4403946;32;20225;-64
2021/01/16 05:51:27;;;;;;;25.10;15.07;;;2.30;84.70;;;;;;4404931;32;20219;-64
2021/01/16 05:53:57;;;;;;;21.97;14.63;;;2.20;84.80;;;;;;4406392;32;20177;-64
2021/01/16 05:56:27;;;;;;;19.83;13.43;;;2.30;85.10;;;;;;4419009;32;20304;-65
2021/01/16 05:58:55;;;;;;;20.90;14.40;;;2.20;85.10;;;;;;4420078;32;20167;-65
2021/01/16 06:01:26;;;;;;;19.60;14.30;;;2.20;85.00;;;;;;4409851;32;20217;-65
2021/01/16 06:03:55;;;;;;;21.83;15.33;;;2.30;85.30;;;;;;4406452;32;20624;-64
2021/01/16 06:06:24;;;;;;;23.83;14.37;;;2.30;85.40;;;;;;4417493;32;20136;-65
2021/01/16 06:09:03;;;;;;;20.47;14.27;;;2.30;85.10;;;;;;4421655;32;20529;-63
2021/01/16 06:11:38;;;;;;;22.33;14.80;;;2.30;85.20;;;;;;4405596;32;20209;-63
2021/01/16 06:14:13;;;;;;;20.93;14.43;;;2.30;85.10;;;;;;4407593;32;20143;-65
2021/01/16 06:16:57;;;;;;;24.17;14.83;;;2.30;84.90;;;;;;4409158;32;20190;-64
2021/01/16 06:19:33;;;;;;;23.93;15.13;;;2.30;84.40;;;;;;4390577;32;20132;-63
2021/01/16 06:22:09;;;;;;;23.57;15.60;;;2.40;84.50;;;;;;4376131;32;20191;-63
2021/01/16 06:24:37;;;;;;;22.20;14.27;;;2.30;85.00;;;;;;4391043;32;20269;-63
2021/01/16 06:27:05;;;;;;;22.37;13.83;;;2.30;85.20;;;;;;4390766;32;20144;-64
2021/01/16 06:29:33;;;;;;;22.07;14.30;;;2.30;84.50;;;;;;4390790;32;20227;-66
2021/01/16 06:32:08;;;;;;;21.00;15.23;;;2.30;84.60;;;;;;4390231;32;20356;-65
2021/01/16 06:34:36;;;;;;;19.87;13.73;;;2.40;84.40;;;;;;4390263;32;20221;-64
2021/01/16 06:37:14;;;;;;;21.73;13.20;;;2.40;84.30;;;;;;4391352;32;20454;-64
2021/01/16 06:39:47;;;;;;;21.23;13.97;;;2.40;83.90;;;;;;4390215;32;20336;-63
2021/01/16 06:42:41;;;;;;;20.33;13.93;;;2.40;83.60;;;;;;4390269;32;20144;-64
2021/01/16 06:45:11;;;;;;;19.10;13.07;;;2.30;84.00;;;;;;4390364;32;20168;-65
2021/01/16 06:47:40;;;;;;;19.53;13.37;;;2.30;84.00;;;;;;4390384;32;20232;-63
2021/01/16 06:50:14;;;;;;;19.77;13.00;;;2.30;84.10;;;;;;4389430;32;20156;-65
2021/01/16 06:52:41;;;;;;;18.03;11.83;;;2.30;83.70;;;;;;4389924;32;20656;-65
2021/01/16 06:55:08;;;;;;;22.77;13.80;;;2.30;84.10;;;;;;4389795;32;20151;-63
2021/01/16 06:57:35;;;;;;;18.37;12.23;;;2.30;83.90;;;;;;4390135;32;20160;-63
2021/01/16 07:00:12;;;;;;;21.23;12.07;;;2.30;84.00;;;;;;4389314;32;20223;-64
2021/01/16 07:02:50;;;;;;;21.70;13.67;;;2.30;84.30;;;;;;4391069;32;20143;-65
2021/01/16 07:05:26;;;;;;;19.97;12.80;;;2.30;83.80;;;;;;4380162;32;20330;-64
2021/01/16 07:08:07;;;;;;;17.97;11.73;;;2.30;83.30;;;;;;4387833;32;20182;-63
2021/01/16 07:10:46;;;;;;;18.30;12.27;;;2.30;82.40;;;;;;4390202;32;20172;-64
2021/01/16 07:13:27;;;;;;;18.23;10.93;;;2.30;82.30;;;;;;4389080;32;20178;-63
2021/01/16 07:15:57;;;;;;;20.67;12.70;;;2.30;82.90;;;;;;4387536;32;20151;-63
2021/01/16 07:18:27;;;;;;;18.33;10.63;;;2.30;83.10;;;;;;4402446;32;20243;-63
2021/01/16 07:21:09;;;;;;;20.00;11.63;;;2.40;82.00;;;;;;4412327;32;20152;-65
2021/01/16 07:23:51;;;;;;;18.67;11.13;;;2.30;81.70;;;;;;4410454;32;20212;-64
2021/01/16 07:26:28;;;;;;;17.77;11.40;;;2.30;81.20;;;;;;4409273;32;20143;-65
2021/01/16 07:29:23;;;;;;;16.97;11.07;;;2.30;81.60;;;;;;4411781;32;20139;-65
2021/01/16 07:31:57;;;;;;;16.17;9.97;;;2.40;81.60;;;;;;4413311;32;20607;-63
2021/01/16 07:34:28;;;;;;;15.77;10.73;;;2.40;81.10;;;;;;4414256;32;20155;-65
2021/01/16 07:36:59;;;;;;;18.03;11.00;;;2.40;79.60;;;;;;4415051;32;20147;-66
2021/01/16 07:39:28;;;;;;;17.20;10.40;;;2.40;79.30;;;;;;4408824;32;20166;-66
2021/01/16 07:42:15;;;;;;;15.27;11.00;;;2.40;79.10;;;;;;4413526;32;20171;-64
2021/01/16 07:45:09;;;;;;;16.77;10.83;;;2.40;79.40;;;;;;4413670;32;20147;-66
2021/01/16 07:47:46;;;;;;;17.27;10.70;;;2.40;78.60;;;;;;4371071;32;20157;-67
2021/01/16 07:50:23;;;;;;;19.43;12.27;;;2.40;77.50;;;;;;4368833;32;20164;-65
2021/01/16 07:52:55;;;;;;;17.10;11.17;;;2.40;77.80;;;;;;4370602;32;20635;-65
2021/01/16 07:55:28;;;;;;;15.37;10.17;;;2.40;77.70;;;;;;4371561;32;20173;-67
2021/01/16 07:58:02;;;;;;;16.93;10.53;;;2.40;77.40;;;;;;4370245;32;20234;-67
2021/01/16 08:00:37;;;;;;;21.13;11.97;;;2.40;76.90;;;;;;4368598;32;20163;-64
2021/01/16 08:03:19;;;;;;;17.00;10.83;;;2.40;76.70;;;;;;4371586;32;20259;-65
2021/01/16 08:05:56;;;;;;;18.50;11.13;;;2.40;77.50;;;;;;4366961;32;20153;-68
2021/01/16 08:08:40;;;;;;;18.53;11.73;;;2.40;77.80;;;;;;4371322;32;20209;-64
2021/01/16 08:11:12;;;;;;;16.67;10.57;;;2.40;77.20;;;;;;4368764;32;20199;-68
2021/01/16 08:13:42;;;;;;;20.97;12.57;;;2.50;77.50;;;;;;4368275;32;20157;-67
2021/01/16 08:16:13;;;;;;;18.47;12.47;;;2.40;77.60;;;;;;4370645;32;20156;-66
2021/01/16 08:18:53;;;;;;;19.00;12.53;;;2.50;77.60;;;;;;4372421;32;20290;-65
2021/01/16 08:21:21;;;;;;;19.37;11.87;;;2.50;77.40;;;;;;4371126;32;20243;-65
2021/01/16 08:24:02;;;;;;;16.60;11.50;;;2.40;76.60;;;;;;4378926;32;20242;-65
2021/01/16 08:26:40;;;;;;;18.47;12.30;;;2.40;76.60;;;;;;4411056;32;20151;-65
2021/01/16 08:29:21;;;;;;;25.07;14.00;;;2.50;76.60;;;;;;4411895;32;20159;-64
2021/01/16 08:32:07;;;;;;;18.53;11.53;;;2.60;76.60;;;;;;4409632;32;20256;-64
2021/01/16 08:34:59;;;;;;;17.43;11.13;;;2.60;76.70;;;;;;4409768;32;20455;-65
2021/01/16 08:37:36;;;;;;;20.13;12.77;;;2.70;77.20;;;;;;4409544;32;20147;-65
2021/01/16 08:40:13;;;;;;;20.50;12.77;;;2.70;76.80;;;;;;4411641;32;20257;-65
2021/01/16 08:42:57;;;;;;;22.03;13.40;;;2.80;76.20;;;;;;4410080;32;20238;-65
2021/01/16 08:45:28;;;;;;;21.60;13.20;;;2.80;75.30;;;;;;4413085;32;20172;-65
2021/01/16 08:47:55;;;;;;;24.67;13.33;;;2.80;74.80;;;;;;4410830;32;20166;-64
2021/01/16 08:50:27;;;;;;;22.83;14.57;;;2.80;75.20;;;;;;4411582;32;20428;-66
2021/01/16 08:53:16;;;;;;;20.60;12.60;;;2.80;75.60;;;;;;4412341;32;20205;-64
2021/01/16 08:55:49;;;;;;;18.70;13.10;;;2.80;76.10;;;;;;4411628;32;20651;-66
2021/01/16 08:58:18;;;;;;;18.77;11.80;;;2.80;75.80;;;;;;4412391;32;20503;-66
2021/01/16 09:01:08;;;;;;;19.47;12.83;;;2.90;75.90;;;;;;4417800;32;20216;-65
2021/01/16 09:03:42;;;;;;;22.43;13.87;;;2.90;74.80;;;;;;4418939;32;20178;-63
2021/01/16 09:06:09;;;;;;;20.20;13.23;;;2.90;74.80;;;;;;4417548;32;20139;-64
2021/01/16 09:08:46;;;;;;;24.03;14.53;;;3.10;74.80;;;;;;4413989;32;20194;-65
2021/01/16 09:11:15;;;;;;;22.50;13.97;;;3.10;75.50;;;;;;4418477;32;20218;-67
2021/01/16 09:13:50;;;;;;;23.27;13.30;;;3.10;75.30;;;;;;4420799;32;20294;-68
2021/01/16 09:16:42;;;;;;;20.87;13.50;;;3.10;75.40;;;;;;4416996;32;20259;-67
2021/01/16 09:19:26;;;;;;;22.27;13.97;;;3.20;75.50;;;;;;4355348;33;20146;-63
2021/01/16 09:22:16;;;;;;;25.57;14.87;;;3.20;75.90;;;;;;4356350;33;20194;-64
2021/01/16 09:25:12;;;;;;;23.50;14.23;;;3.30;75.60;;;;;;4354722;33;20185;-65
2021/01/16 09:27:48;;;;;;;24.93;13.57;;;3.20;76.00;;;;;;4355823;33;20236;-65
2021/01/16 09:30:40;;;;;;;25.17;15.20;;;3.30;75.40;;;;;;4363962;32;20242;-65
2021/01/16 09:33:26;;;;;;;21.43;13.43;;;3.40;75.10;;;;;;4363552;32;20264;-64
2021/01/16 09:35:52;;;;;;;23.90;14.63;;;3.40;74.10;;;;;;4358592;32;20227;-65
2021/01/16 09:38:25;;;;;;;19.63;13.80;;;3.40;74.70;;;;;;4354333;33;20227;-64
2021/01/16 09:40:54;;;;;;;22.10;14.20;;;3.50;74.70;;;;;;4359429;32;20161;-64
2021/01/16 09:43:32;;;;;;;22.63;14.50;;;3.50;74.50;;;;;;4357368;33;20231;-66
2021/01/16 09:46:00;;;;;;;22.47;14.80;;;3.50;73.70;;;;;;4357577;32;20280;-64
2021/01/16 09:48:41;;;;;;;26.13;15.20;;;3.60;73.90;;;;;;4361835;32;20171;-63
2021/01/16 09:51:14;;;;;;;24.10;13.33;;;3.60;73.40;;;;;;4360872;32;20163;-65
2021/01/16 09:53:48;;;;;;;24.20;15.03;;;3.80;73.20;;;;;;4357231;32;20179;-64
2021/01/16 09:56:47;;;;;;;24.77;14.77;;;3.70;72.60;;;;;;4393047;32;20571;-65
2021/01/16 09:59:29;;;;;;;26.10;16.07;;;3.70;73.30;;;;;;4414394;32;20213;-65
2021/01/16 10:02:09;;;;;;;26.07;15.37;;;3.70;73.50;;;;;;4409544;32;20193;-66
2021/01/16 10:04:48;;;;;;;24.63;15.63;;;3.60;73.20;;;;;;4409413;32;20139;-65
2021/01/16 10:07:16;;;;;;;25.10;15.40;;;3.60;73.50;;;;;;4409389;32;20227;-66
2021/01/16 10:09:46;;;;;;;28.67;16.77;;;3.60;73.60;;;;;;4412522;32;20273;-64
2021/01/16 10:12:48;;;;;;;26.70;15.80;;;3.60;73.60;;;;;;4408571;32;20302;-65
2021/01/16 10:15:19;;;;;;;27.03;16.70;;;3.50;73.60;;;;;;4407489;32;20286;-64
2021/01/16 10:18:00;;;;;;;26.53;15.53;;;3.50;74.10;;;;;;4408365;32;20459;-65
2021/01/16 10:20:42;;;;;;;25.67;16.30;;;3.50;73.30;;;;;;4407195;32;20207;-64
2021/01/16 10:23:19;;;;;;;26.63;16.90;;;3.50;72.50;;;;;;4407707;32;20197;-65
2021/01/16 10:26:01;;;;;;;26.50;16.60;;;3.50;72.80;;;;;;4411039;32;20502;-64
2021/01/16 10:28:29;;;;;;;25.03;16.90;;;3.50;73.90;;;;;;4414334;32;20229;-64
2021/01/16 10:31:00;;;;;;;27.70;16.97;;;3.50;73.10;;;;;;4414493;32;20171;-64
2021/01/16 10:33:35;;;;;;;26.13;15.83;;;3.50;73.40;;;;;;4407178;32;20185;-63
2021/01/16 10:36:24;;;;;;;26.33;16.17;;;3.60;72.90;;;;;;4409916;32;20151;-63
2021/01/16 10:38:56;;;;;;;25.30;15.97;;;3.60;72.70;;;;;;4405014;32;20209;-64
2021/01/16 10:41:35;;;;;;;25.50;16.63;;;3.60;72.30;;;;;;4406580;32;20521;-65
2021/01/16 10:44:05;;;;;;;28.80;16.97;;;3.70;73.10;;;;;;4411931;32;20319;-66
2021/01/16 10:46:50;;;;;;;25.70;15.97;;;3.60;71.70;;;;;;4409796;32;20215;-68
2021/01/16 10:49:37;;;;;;;26.67;17.10;;;3.60;72.30;;;;;;4412174;32;20211;-64
2021/01/16 10:52:06;;;;;;;27.80;16.57;;;3.60;72.70;;;;;;4408267;32;20573;-64
2021/01/16 10:54:33;;;;;;;24.60;15.00;;;3.60;72.20;;;;;;4410630;32;20139;-64
2021/01/16 10:57:06;;;;;;;25.57;16.80;;;3.70;72.30;;;;;;4406939;32;20156;-67
2021/01/16 10:59:36;;;;;;;27.40;17.33;;;3.70;72.10;;;;;;4404493;32;20143;-64
2021/01/16 11:02:12;;;;;;;26.67;17.43;;;3.70;71.40;;;;;;4408350;32;20146;-68
2021/01/16 11:04:54;;;;;;;26.63;16.03;;;3.70;71.80;;;;;;4405379;32;20174;-66
2021/01/16 11:07:30;;;;;;;24.67;15.87;;;3.70;72.20;;;;;;4418381;32;20242;-68
2021/01/16 11:10:11;;;;;;;25.30;15.80;;;3.60;72.20;;;;;;4415121;32;20147;-63
2021/01/16 11:12:44;;;;;;;22.77;15.23;;;3.70;72.70;;;;;;4406876;32;20159;-69
2021/01/16 11:15:25;;;;;;;23.60;15.67;;;3.70;71.40;;;;;;4407086;32;20232;-63
2021/01/16 11:18:03;;;;;;;24.83;16.17;;;3.70;72.70;;;;;;4406792;32;20159;-66
2021/01/16 11:20:31;;;;;;;25.60;16.80;;;3.70;72.10;;;;;;4408462;32;20479;-66
2021/01/16 11:23:27;;;;;;;25.80;16.30;;;3.80;72.30;;;;;;4404205;32;20159;-64
2021/01/16 11:25:58;;;;;;;27.17;15.50;;;3.70;71.70;;;;;;4402335;32;20227;-65
2021/01/16 11:28:25;;;;;;;24.67;16.00;;;3.70;71.70;;;;;;4404747;32;20158;-65
2021/01/16 11:31:03;;;;;;;22.20;14.23;;;3.70;72.20;;;;;;4407379;32;20223;-66
2021/01/16 11:33:30;;;;;;;22.57;14.33;;;3.70;71.80;;;;;;4409258;32;20179;-65
2021/01/16 11:36:13;;;;;;;26.87;14.60;;;3.70;72.10;;;;;;4412473;32;20222;-64
2021/01/16 11:38:45;;;;;;;23.63;14.13;;;3.70;71.00;;;;;;4409047;32;20312;-65
2021/01/16 11:41:13;;;;;;;23.20;14.50;;;3.70;71.10;;;;;;4402970;32;20186;-66
2021/01/16 11:43:41;;;;;;;21.67;13.67;;;3.60;71.90;;;;;;4403994;32;20149;-64
2021/01/16 11:46:10;;;;;;;20.13;13.80;;;3.60;72.00;;;;;;4403502;32;20231;-66
2021/01/16 11:48:39;;;;;;;19.83;12.73;;;3.70;71.60;;;;;;4403457;32;20204;-65
2021/01/16 11:51:13;;;;;;;25.27;14.33;;;3.70;71.50;;;;;;4404143;32;20160;-67
2021/01/16 11:53:47;;;;;;;17.83;12.47;;;3.70;70.40;;;;;;4412085;32;20237;-65
2021/01/16 11:56:21;;;;;;;26.07;15.00;;;3.70;70.60;;;;;;4408823;32;20155;-67
2021/01/16 11:58:50;;;;;;;23.03;14.27;;;3.70;70.40;;;;;;4404522;32;20248;-65
2021/01/16 12:01:19;;;;;;;20.40;12.53;;;3.60;70.90;;;;;;4406431;32;20587;-67
2021/01/16 12:03:48;;;;;;;17.47;11.73;;;3.60;70.40;;;;;;4404282;32;20227;-64
2021/01/16 12:06:17;;;;;;;18.93;11.90;;;3.60;70.50;;;;;;4403146;32;20174;-65
2021/01/16 12:11:38;;;;;;;22.10;12.17;;;3.70;71.10;;;;;;4402604;32;20199;-65
2021/01/16 12:14:09;;;;;;;17.47;10.20;;;3.60;70.00;;;;;;4136658;32;8722826;-69
2021/01/16 12:16:44;;;;;;;16.00;10.83;;;3.50;69.80;;;;;;4403999;32;20190;-66
2021/01/16 12:19:16;;;;;;;16.53;11.20;;;3.50;70.50;;;;;;4403626;32;20211;-66
2021/01/16 12:21:47;;;;;;;14.40;10.37;;;3.40;69.80;;;;;;4405461;32;20227;-66
2021/01/16 12:24:26;;;;;;;16.40;10.10;;;3.40;69.40;;;;;;4403591;32;20217;-65
2021/01/16 12:26:58;;;;;;;17.77;9.93;;;3.40;70.30;;;;;;4406116;32;20159;-66
2021/01/16 12:29:37;;;;;;;16.07;9.97;;;3.30;69.10;;;;;;4404103;32;20171;-64
2021/01/16 12:32:09;;;;;;;14.33;9.60;;;3.40;69.30;;;;;;4404370;32;20181;-64
2021/01/16 12:34:44;;;;;;;15.83;10.57;;;3.40;69.10;;;;;;4408248;32;20469;-64
2021/01/16 12:40:54;;;;;;;16.13;10.07;;;3.40;69.20;;;;;;4355616;33;20659;-64
2021/01/16 12:43:30;;;;;;;14.80;9.60;;;3.30;68.90;;;;;;4346259;33;20224;-64
2021/01/16 12:46:09;;;;;;;14.77;10.17;;;3.30;68.30;;;;;;4356723;33;20270;-66
2021/01/16 12:48:39;;;;;;;12.73;7.73;;;3.20;68.40;;;;;;4354429;33;20189;-64
2021/01/16 12:51:14;;;;;;;12.17;7.80;;;3.20;68.40;;;;;;4344686;33;20220;-64
2021/01/16 12:53:42;;;;;;;13.33;8.13;;;3.20;67.20;;;;;;4344493;33;20160;-64
2021/01/16 12:56:36;;;;;;;12.60;8.13;;;3.30;67.40;;;;;;4346605;33;20248;-65
2021/01/16 12:59:03;;;;;;;11.27;7.30;;;3.30;67.00;;;;;;4348733;33;20756;-65
2021/01/16 13:01:41;;;;;;;12.17;7.53;;;3.30;68.40;;;;;;4351202;32;20652;-67
2021/01/16 13:04:23;;;;;;;11.53;7.67;;;3.30;67.90;;;;;;4352456;32;20209;-65
2021/01/16 13:06:52;;;;;;;12.80;7.40;;;3.30;68.60;;;;;;4352051;32;20551;-64
2021/01/16 13:09:19;;;;;;;11.57;7.70;;;3.40;67.80;;;;;;4354223;33;20160;-64
2021/01/16 13:11:54;;;;;;;11.70;7.23;;;3.40;67.40;;;;;;4393977;32;20214;-64
2021/01/16 13:14:23;;;;;;;11.33;7.83;;;3.20;68.20;;;;;;4408576;32;20314;-64
2021/01/16 13:17:23;;;;;;;12.70;8.37;;;3.30;69.20;;;;;;4413539;32;20251;-65
2021/01/16 13:19:53;;;;;;;11.93;7.53;;;3.30;68.40;;;;;;4330760;33;20219;-65